Lake Angelus, Michigan
Current Conditions -  °F | °C
As of 4:53 AM on Sunday 23 Nov 2014 (Local Time) from KPTK Reporting Station
Overcast Overcast  
Wind Chill: 43°   Ceiling: 2200
Heat Index: 47°   Visibility: 10mi
Dew Point: 40°   Wind: 8mph
Humidity: 77%   Direction: 190°S
Pressure: 29.9"   Gusts: NA
Location:  42.6755°N, 83.2525°W
Report Text: KPTK 230953Z AUTO 19007KT 10SM OVC022 08/04 A2990 RMK AO2 SLP130 T00830044
Loading
Personal Weather Stations






























Interactive Weather Map New forecast layout! Learn more

10-Day Weather Forecast

Advertisements
Track Severe Weather on mobile